Time;durP1;ratioP1;P1;durP2;ratioP2;P2;SDS_P1;SDS_P2;PMS_P1;PMS_P2;Temp;Humidity;BMP_temperature;BMP_pressure;BME280_temperature;BME280_humidity;BME280_pressure;Samples;Min_cycle;Max_cycle;Signal;HPM_P1;HPM_P2
2023/10/20 00:00:14;;;;;;;7.97;7.38;;;;;;;;;;5056292;28;20385;-80
2023/10/20 00:02:40;;;;;;;9.20;8.35;;;;;;;;;;5056089;28;20888;-80
2023/10/20 00:05:06;;;;;;;8.50;7.70;;;;;;;;;;5060177;28;20469;-80
2023/10/20 00:07:32;;;;;;;8.50;7.72;;;;;;;;;;5056051;28;20385;-80
2023/10/20 00:09:59;;;;;;;9.20;8.50;;;;;;;;;;5056364;28;20401;-80
2023/10/20 00:12:25;;;;;;;9.50;8.60;;;;;;;;;;5056248;28;20407;-80
2023/10/20 00:14:51;;;;;;;8.02;7.32;;;;;;;;;;5055717;28;20756;-80
2023/10/20 00:17:17;;;;;;;8.38;7.57;;;;;;;;;;5055934;28;20389;-80
2023/10/20 00:19:43;;;;;;;8.95;8.15;;;;;;;;;;5055728;28;20413;-80
2023/10/20 00:22:10;;;;;;;8.48;7.78;;;;;;;;;;5056148;28;20386;-80
2023/10/20 00:24:36;;;;;;;8.13;7.45;;;;;;;;;;5059519;28;20451;-80
2023/10/20 00:27:03;;;;;;;8.38;7.47;;;;;;;;;;5059075;28;20846;-80
2023/10/20 00:29:29;;;;;;;7.80;7.00;;;;;;;;;;5059274;28;20381;-80
2023/10/20 00:31:55;;;;;;;8.25;7.45;;;;;;;;;;5058661;28;20374;-80
2023/10/20 00:34:21;;;;;;;7.70;7.00;;;;;;;;;;5059755;28;20452;-80
2023/10/20 00:36:47;;;;;;;7.63;6.95;;;;;;;;;;5059357;28;20388;-80
2023/10/20 00:39:13;;;;;;;7.53;6.93;;;;;;;;;;5059456;28;20754;-80
2023/10/20 00:41:39;;;;;;;7.45;6.80;;;;;;;;;;5059855;28;20408;-80
2023/10/20 00:44:05;;;;;;;7.17;6.57;;;;;;;;;;5059119;28;20381;-80
2023/10/20 00:46:31;;;;;;;7.38;6.80;;;;;;;;;;5058007;28;20385;-80
2023/10/20 00:48:57;;;;;;;6.55;5.95;;;;;;;;;;5059502;28;20396;-80
2023/10/20 00:51:27;;;;;;;6.97;6.28;;;;;;;;;;5059338;28;20450;-80
2023/10/20 00:53:53;;;;;;;6.83;6.33;;;;;;;;;;5058721;28;20404;-80
2023/10/20 00:56:19;;;;;;;6.65;6.15;;;;;;;;;;5058428;28;20469;-80
2023/10/20 00:58:45;;;;;;;6.93;6.32;;;;;;;;;;5062029;28;20462;-80
2023/10/20 01:01:12;;;;;;;6.80;6.25;;;;;;;;;;5063541;28;20377;-80
2023/10/20 01:03:38;;;;;;;6.50;6.00;;;;;;;;;;5060782;28;20383;-80
2023/10/20 01:06:04;;;;;;;6.95;6.32;;;;;;;;;;5060437;28;20408;-80
2023/10/20 01:08:30;;;;;;;6.78;6.10;;;;;;;;;;5060431;28;20388;-80
2023/10/20 01:10:56;;;;;;;5.97;5.47;;;;;;;;;;5060007;28;20385;-80
2023/10/20 01:13:23;;;;;;;6.70;6.10;;;;;;;;;;5060614;28;20858;-80
2023/10/20 01:15:49;;;;;;;6.50;5.90;;;;;;;;;;5060764;28;20389;-80
2023/10/20 01:18:15;;;;;;;6.30;5.70;;;;;;;;;;5059974;28;20882;-80
2023/10/20 01:20:41;;;;;;;7.07;6.47;;;;;;;;;;5059717;28;20392;-80
2023/10/20 01:23:07;;;;;;;6.23;5.73;;;;;;;;;;5060499;28;20382;-80
2023/10/20 01:25:33;;;;;;;7.50;5.82;;;;;;;;;;5059248;28;20376;-80
2023/10/20 01:27:59;;;;;;;6.20;5.60;;;;;;;;;;5059937;28;20801;-80
2023/10/20 01:30:25;;;;;;;6.53;5.93;;;;;;;;;;5059156;28;20385;-80
2023/10/20 01:32:51;;;;;;;6.60;6.00;;;;;;;;;;5059901;28;20875;-80
2023/10/20 01:35:17;;;;;;;7.13;6.60;;;;;;;;;;5058578;28;20382;-80
2023/10/20 01:37:44;;;;;;;6.53;5.93;;;;;;;;;;5058598;28;20712;-78
2023/10/20 01:40:12;;;;;;;6.60;5.97;;;;;;;;;;5057678;28;20389;-78
2023/10/20 01:42:38;;;;;;;6.88;6.28;;;;;;;;;;5057864;28;20468;-78
2023/10/20 01:45:05;;;;;;;6.70;6.10;;;;;;;;;;5057099;28;20466;-78
2023/10/20 01:47:31;;;;;;;6.60;6.03;;;;;;;;;;5057864;28;20789;-78
2023/10/20 01:49:57;;;;;;;6.75;6.25;;;;;;;;;;5057076;28;20769;-78
2023/10/20 01:52:23;;;;;;;7.00;6.40;;;;;;;;;;5057537;28;20393;-78
2023/10/20 01:54:49;;;;;;;7.00;6.40;;;;;;;;;;5055107;28;20446;-78
2023/10/20 01:57:15;;;;;;;6.85;6.35;;;;;;;;;;5056673;28;20413;-78
2023/10/20 01:59:41;;;;;;;7.47;6.88;;;;;;;;;;5056534;28;20445;-78
2023/10/20 02:02:07;;;;;;;7.23;6.63;;;;;;;;;;5056562;28;20885;-80
2023/10/20 02:04:33;;;;;;;6.90;6.30;;;;;;;;;;5057721;28;20378;-78
2023/10/20 02:06:59;;;;;;;7.05;6.45;;;;;;;;;;5056010;28;20450;-78
2023/10/20 02:09:25;;;;;;;6.70;6.10;;;;;;;;;;5055633;28;20854;-78
2023/10/20 02:11:58;;;;;;;6.35;5.78;;;;;;;;;;5055771;28;20409;-79
2023/10/20 02:14:24;;;;;;;6.65;6.05;;;;;;;;;;5056254;28;20397;-78
2023/10/20 02:16:54;;;;;;;6.88;6.18;;;;;;;;;;5055145;28;20400;-78
2023/10/20 02:19:20;;;;;;;7.00;6.40;;;;;;;;;;5054111;28;20405;-78
2023/10/20 02:21:47;;;;;;;7.22;6.55;;;;;;;;;;5054988;28;20378;-78
2023/10/20 02:24:13;;;;;;;6.28;5.78;;;;;;;;;;5056755;28;20420;-78
2023/10/20 02:26:40;;;;;;;6.60;6.10;;;;;;;;;;5054467;28;20385;-78
2023/10/20 02:29:06;;;;;;;6.30;5.78;;;;;;;;;;5054336;28;20728;-78
2023/10/20 02:31:32;;;;;;;6.35;5.78;;;;;;;;;;5054650;28;20390;-78
2023/10/20 02:33:58;;;;;;;6.18;5.68;;;;;;;;;;5051913;28;20389;-80
2023/10/20 02:36:24;;;;;;;6.13;5.53;;;;;;;;;;5037189;28;20403;-81
2023/10/20 02:38:52;;;;;;;6.18;5.57;;;;;;;;;;5053395;28;20804;-78
2023/10/20 02:41:19;;;;;;;5.90;5.50;;;;;;;;;;5053666;28;20400;-78
2023/10/20 02:43:45;;;;;;;6.63;6.03;;;;;;;;;;5054452;28;20468;-78
2023/10/20 02:46:12;;;;;;;6.90;6.35;;;;;;;;;;5053895;28;20381;-78
2023/10/20 02:48:38;;;;;;;7.57;6.30;;;;;;;;;;5054813;28;20869;-78
2023/10/20 02:51:23;;;;;;;7.60;6.90;;;;;;;;;;5054756;28;20385;-78
2023/10/20 02:53:49;;;;;;;7.00;6.40;;;;;;;;;;5052655;28;20381;-78
2023/10/20 02:56:16;;;;;;;6.60;6.00;;;;;;;;;;5054098;28;20382;-78
2023/10/20 02:58:45;;;;;;;7.05;6.45;;;;;;;;;;5054841;28;20413;-78
2023/10/20 03:01:13;;;;;;;6.80;6.30;;;;;;;;;;5052709;28;20404;-78
2023/10/20 03:03:39;;;;;;;6.88;6.18;;;;;;;;;;5055336;28;20842;-81
2023/10/20 03:06:06;;;;;;;7.07;6.28;;;;;;;;;;5056664;28;20390;-78
2023/10/20 03:08:33;;;;;;;7.43;6.68;;;;;;;;;;5054663;28;20739;-78
2023/10/20 03:10:59;;;;;;;6.85;6.25;;;;;;;;;;5053483;28;20427;-78
2023/10/20 03:13:26;;;;;;;7.10;6.53;;;;;;;;;;5053737;28;20743;-78
2023/10/20 03:15:52;;;;;;;6.77;6.27;;;;;;;;;;5053521;28;20385;-78
2023/10/20 03:18:19;;;;;;;8.20;7.50;;;;;;;;;;5053667;28;20413;-78
2023/10/20 03:20:46;;;;;;;7.43;6.72;;;;;;;;;;5054118;28;20739;-78
2023/10/20 03:23:13;;;;;;;6.97;6.45;;;;;;;;;;5053797;28;20385;-78
2023/10/20 03:25:40;;;;;;;7.10;6.50;;;;;;;;;;5054124;28;20389;-78
2023/10/20 03:28:06;;;;;;;6.93;6.22;;;;;;;;;;5054037;28;20385;-78
2023/10/20 03:30:38;;;;;;;6.85;6.28;;;;;;;;;;5053788;28;20735;-78
2023/10/20 03:33:05;;;;;;;7.63;6.93;;;;;;;;;;5054158;28;20396;-78
2023/10/20 03:35:31;;;;;;;7.57;6.90;;;;;;;;;;5054101;28;20389;-78
2023/10/20 03:37:58;;;;;;;8.10;7.30;;;;;;;;;;5053676;28;20385;-78
2023/10/20 03:40:36;;;;;;;7.57;6.88;;;;;;;;;;5053183;28;20479;-78
2023/10/20 03:43:02;;;;;;;7.78;7.18;;;;;;;;;;5052147;28;20512;-78
2023/10/20 03:45:28;;;;;;;7.17;6.63;;;;;;;;;;5053001;28;20774;-78
2023/10/20 03:47:54;;;;;;;7.28;6.68;;;;;;;;;;5053705;28;20377;-80
2023/10/20 03:50:21;;;;;;;7.25;6.55;;;;;;;;;;5056500;28;20424;-80
2023/10/20 03:52:48;;;;;;;7.57;7.03;;;;;;;;;;5054802;28;20381;-78
2023/10/20 03:55:14;;;;;;;7.68;6.90;;;;;;;;;;5053367;28;20469;-78
2023/10/20 03:57:44;;;;;;;7.05;6.53;;;;;;;;;;5052080;28;20388;-78
2023/10/20 04:00:29;;;;;;;8.13;7.35;;;;;;;;;;5053127;28;20382;-78
2023/10/20 04:02:58;;;;;;;7.70;7.03;;;;;;;;;;5039540;28;20378;-78
2023/10/20 04:05:25;;;;;;;7.80;7.05;;;;;;;;;;5059326;28;20393;-78
2023/10/20 04:07:52;;;;;;;7.50;6.90;;;;;;;;;;5060607;28;20441;-78
2023/10/20 04:10:21;;;;;;;7.82;7.15;;;;;;;;;;5057481;28;20405;-78
2023/10/20 04:12:47;;;;;;;8.10;7.45;;;;;;;;;;5056475;28;20389;-78
2023/10/20 04:15:19;;;;;;;7.88;7.18;;;;;;;;;;5056071;28;20381;-78
2023/10/20 04:17:45;;;;;;;7.87;7.27;;;;;;;;;;5056081;28;20385;-78
2023/10/20 04:20:18;;;;;;;7.60;6.90;;;;;;;;;;5055680;28;20878;-78
2023/10/20 04:22:44;;;;;;;7.68;7.07;;;;;;;;;;5055305;28;20395;-78
2023/10/20 04:25:13;;;;;;;7.82;7.15;;;;;;;;;;5054848;28;20382;-78
2023/10/20 04:27:57;;;;;;;8.10;7.38;;;;;;;;;;5053673;28;20385;-78
2023/10/20 05:07:56;;;;;;;8.85;8.15;;;;;;;;;;5051966;28;20385;-78
2023/10/20 05:10:22;;;;;;;9.18;8.48;;;;;;;;;;5054797;28;20377;-78
2023/10/20 05:12:48;;;;;;;9.77;8.90;;;;;;;;;;5054881;28;20520;-78
2023/10/20 05:15:14;;;;;;;9.70;8.90;;;;;;;;;;5054795;28;20397;-79
2023/10/20 05:17:40;;;;;;;9.88;9.10;;;;;;;;;;5054516;28;21100;-78
2023/10/20 05:20:09;;;;;;;9.82;8.93;;;;;;;;;;5054913;28;20782;-78
2023/10/20 05:22:36;;;;;;;10.00;9.20;;;;;;;;;;5055433;28;20408;-79
2023/10/20 05:25:02;;;;;;;10.27;9.38;;;;;;;;;;5052892;28;20514;-78
2023/10/20 05:27:28;;;;;;;12.57;11.57;;;;;;;;;;5054787;28;20377;-78
2023/10/20 05:29:54;;;;;;;10.07;9.17;;;;;;;;;;5055546;28;20388;-78
2023/10/20 05:32:20;;;;;;;9.27;8.48;;;;;;;;;;5054892;28;20381;-78
2023/10/20 05:34:46;;;;;;;10.02;9.23;;;;;;;;;;5055051;28;20388;-80
2023/10/20 05:37:12;;;;;;;9.90;9.05;;;;;;;;;;5054909;28;20715;-78
2023/10/20 05:39:38;;;;;;;11.07;10.07;;;;;;;;;;5053858;28;20436;-79
2023/10/20 05:42:04;;;;;;;10.98;10.07;;;;;;;;;;5054166;28;20385;-78
2023/10/20 05:44:31;;;;;;;11.13;10.13;;;;;;;;;;5055129;28;20397;-79
2023/10/20 05:46:57;;;;;;;11.18;10.20;;;;;;;;;;5058803;28;20397;-79
2023/10/20 05:49:23;;;;;;;11.27;10.38;;;;;;;;;;5057540;28;20469;-79
2023/10/20 05:51:52;;;;;;;11.23;10.32;;;;;;;;;;5058915;28;20712;-79
2023/10/20 05:54:19;;;;;;;11.88;10.80;;;;;;;;;;5068470;28;20468;-79
2023/10/20 05:56:45;;;;;;;11.38;10.48;;;;;;;;;;5058093;28;20393;-79
2023/10/20 05:59:11;;;;;;;11.20;10.30;;;;;;;;;;5057900;28;20413;-79
2023/10/20 06:01:37;;;;;;;11.27;10.27;;;;;;;;;;5057660;28;20409;-79
2023/10/20 06:04:08;;;;;;;11.80;10.80;;;;;;;;;;5058228;28;20380;-79
2023/10/20 06:06:34;;;;;;;11.95;11.05;;;;;;;;;;5059267;28;20755;-79
2023/10/20 06:09:00;;;;;;;11.40;10.50;;;;;;;;;;5058081;28;20386;-79
2023/10/20 06:11:26;;;;;;;11.80;10.90;;;;;;;;;;5056412;28;20381;-79
2023/10/20 06:13:52;;;;;;;12.35;11.32;;;;;;;;;;5040423;28;20389;-80
2023/10/20 06:16:18;;;;;;;12.07;11.10;;;;;;;;;;5058261;28;20386;-79
2023/10/20 06:18:44;;;;;;;12.85;11.75;;;;;;;;;;5058020;28;20420;-80
2023/10/20 06:21:14;;;;;;;12.20;11.20;;;;;;;;;;5056175;28;20393;-79
2023/10/20 06:23:40;;;;;;;11.85;10.95;;;;;;;;;;5057157;28;20385;-79
2023/10/20 06:26:06;;;;;;;12.45;11.45;;;;;;;;;;5057665;28;20447;-79
2023/10/20 06:28:33;;;;;;;12.18;11.18;;;;;;;;;;5057431;28;20377;-79
2023/10/20 06:31:01;;;;;;;13.57;12.55;;;;;;;;;;5056792;28;20393;-79
2023/10/20 06:33:32;;;;;;;13.00;11.90;;;;;;;;;;5056930;28;20407;-79
2023/10/20 06:36:25;;;;;;;13.77;12.68;;;;;;;;;;5057674;28;20386;-79
2023/10/20 06:41:10;;;;;;;12.93;11.82;;;;;;;;;;5056777;28;20405;-79
2023/10/20 06:43:36;;;;;;;13.32;12.18;;;;;;;;;;5051790;28;20851;-79
2023/10/20 06:46:03;;;;;;;13.15;12.15;;;;;;;;;;5056632;28;20380;-81
2023/10/20 06:48:29;;;;;;;13.35;12.23;;;;;;;;;;5056636;28;20374;-80
2023/10/20 06:50:55;;;;;;;14.43;13.07;;;;;;;;;;5057012;28;20384;-79
2023/10/20 06:53:21;;;;;;;15.55;14.05;;;;;;;;;;5057568;28;20461;-79
2023/10/20 06:55:48;;;;;;;15.27;13.98;;;;;;;;;;5056964;28;20393;-79
2023/10/20 06:58:17;;;;;;;14.07;12.98;;;;;;;;;;5057245;28;20421;-79
2023/10/20 07:00:44;;;;;;;14.75;13.55;;;;;;;;;;5055763;28;20412;-80
2023/10/20 07:03:10;;;;;;;15.73;14.43;;;;;;;;;;5057192;28;20378;-79
2023/10/20 07:05:37;;;;;;;15.13;13.93;;;;;;;;;;5057032;28;20386;-80
2023/10/20 07:08:04;;;;;;;15.30;13.90;;;;;;;;;;5056830;28;20727;-80
2023/10/20 07:10:34;;;;;;;15.50;14.30;;;;;;;;;;5052934;28;20855;-80
2023/10/20 07:13:00;;;;;;;15.00;13.80;;;;;;;;;;5058181;28;20384;-79
2023/10/20 07:15:26;;;;;;;14.50;13.40;;;;;;;;;;5061355;28;20385;-80
2023/10/20 07:17:52;;;;;;;15.40;14.00;;;;;;;;;;5057585;28;20503;-79
2023/10/20 07:20:18;;;;;;;15.52;14.23;;;;;;;;;;5037267;28;20424;-79
2023/10/20 07:22:44;;;;;;;16.08;14.65;;;;;;;;;;5055112;28;20390;-79
2023/10/20 07:25:10;;;;;;;15.35;13.98;;;;;;;;;;5055687;28;20396;-79
2023/10/20 07:27:36;;;;;;;15.73;14.43;;;;;;;;;;5045924;28;20506;-79
2023/10/20 07:30:03;;;;;;;14.70;13.40;;;;;;;;;;5052374;28;20973;-79
2023/10/20 07:32:30;;;;;;;15.70;14.40;;;;;;;;;;5050670;28;20416;-79
2023/10/20 07:34:56;;;;;;;15.73;14.43;;;;;;;;;;5053991;28;20409;-79
2023/10/20 07:37:22;;;;;;;13.70;12.50;;;;;;;;;;5052287;28;20381;-79
2023/10/20 07:39:49;;;;;;;13.70;12.57;;;;;;;;;;5050096;28;20420;-79
2023/10/20 07:42:19;;;;;;;13.30;12.20;;;;;;;;;;5055712;28;20424;-80
2023/10/20 07:44:45;;;;;;;12.27;11.27;;;;;;;;;;5057355;28;20439;-79
2023/10/20 07:47:11;;;;;;;11.38;10.50;;;;;;;;;;5056901;28;20381;-80
2023/10/20 07:49:37;;;;;;;10.95;9.88;;;;;;;;;;5056816;28;20385;-80
2023/10/20 07:52:03;;;;;;;10.25;9.45;;;;;;;;;;5053817;28;20389;-80
2023/10/20 07:54:29;;;;;;;10.45;9.65;;;;;;;;;;5057037;28;20390;-80
2023/10/20 07:56:56;;;;;;;9.40;8.68;;;;;;;;;;5056552;28;20451;-80
2023/10/20 07:59:22;;;;;;;9.48;8.68;;;;;;;;;;5056279;28;20481;-81
2023/10/20 08:01:48;;;;;;;5.40;4.82;;;;;;;;;;5057238;28;20417;-80
2023/10/20 08:04:14;;;;;;;5.17;4.67;;;;;;;;;;5056777;28;20385;-80
2023/10/20 08:06:40;;;;;;;4.90;3.97;;;;;;;;;;5056106;28;20386;-80
2023/10/20 08:09:08;;;;;;;5.90;3.30;;;;;;;;;;5056720;28;20440;-80
2023/10/20 08:11:34;;;;;;;3.58;3.05;;;;;;;;;;5055389;28;20377;-80
2023/10/20 08:14:00;;;;;;;3.20;2.60;;;;;;;;;;5056295;28;20392;-80
2023/10/20 08:16:26;;;;;;;2.25;2.13;;;;;;;;;;5055496;28;20396;-80
2023/10/20 08:18:52;;;;;;;2.30;2.10;;;;;;;;;;5055800;28;20412;-80
2023/10/20 08:21:19;;;;;;;2.10;1.90;;;;;;;;;;5057513;28;20855;-80
2023/10/20 08:23:45;;;;;;;2.73;1.93;;;;;;;;;;5057173;28;20374;-81
2023/10/20 08:26:15;;;;;;;2.33;2.13;;;;;;;;;;5057131;28;20385;-81
2023/10/20 08:28:41;;;;;;;2.15;1.95;;;;;;;;;;5043823;28;20409;-81
2023/10/20 08:31:08;;;;;;;2.42;2.22;;;;;;;;;;5053875;28;20386;-81
2023/10/20 08:33:34;;;;;;;3.10;2.90;;;;;;;;;;5054255;28;20404;-81
2023/10/20 08:36:14;;;;;;;2.90;2.70;;;;;;;;;;5054678;28;20404;-81
2023/10/20 08:38:40;;;;;;;3.20;2.87;;;;;;;;;;5053984;28;20434;-81
2023/10/20 08:41:08;;;;;;;2.80;2.60;;;;;;;;;;5054165;28;20385;-81
2023/10/20 08:43:35;;;;;;;2.83;2.45;;;;;;;;;;5056634;28;20381;-81
2023/10/20 08:46:01;;;;;;;3.00;2.70;;;;;;;;;;5057562;28;20381;-81
2023/10/20 08:48:27;;;;;;;2.80;2.60;;;;;;;;;;5058766;28;20538;-81
2023/10/20 08:50:54;;;;;;;3.00;2.50;;;;;;;;;;5052184;28;20375;-81
2023/10/20 08:53:21;;;;;;;3.85;2.65;;;;;;;;;;5045223;28;20439;-81
2023/10/20 08:55:48;;;;;;;3.40;2.53;;;;;;;;;;5048783;28;20387;-80
2023/10/20 08:58:14;;;;;;;3.20;2.90;;;;;;;;;;5047499;28;20416;-81
2023/10/20 09:00:40;;;;;;;3.10;2.80;;;;;;;;;;5060187;28;20393;-81
2023/10/20 09:03:06;;;;;;;4.00;2.85;;;;;;;;;;5061082;28;20379;-80
2023/10/20 09:05:32;;;;;;;3.03;2.83;;;;;;;;;;5054127;28;20393;-81
2023/10/20 09:07:59;;;;;;;3.40;2.70;;;;;;;;;;5058164;28;20385;-81
2023/10/20 09:10:25;;;;;;;3.40;2.60;;;;;;;;;;5056734;28;20385;-81
2023/10/20 09:12:51;;;;;;;2.45;2.25;;;;;;;;;;5058728;28;20378;-83
2023/10/20 09:15:17;;;;;;;2.60;2.40;;;;;;;;;;5059382;28;20385;-82
2023/10/20 09:17:44;;;;;;;2.70;2.50;;;;;;;;;;5059001;28;20439;-82
2023/10/20 09:20:11;;;;;;;2.25;2.05;;;;;;;;;;5058799;28;20416;-82
2023/10/20 09:22:38;;;;;;;3.90;2.28;;;;;;;;;;5058773;28;20439;-82
2023/10/20 09:25:10;;;;;;;3.05;2.13;;;;;;;;;;5059194;28;20435;-82
2023/10/20 09:27:37;;;;;;;2.35;2.20;;;;;;;;;;5058158;28;20886;-83
2023/10/20 09:30:08;;;;;;;1.88;1.77;;;;;;;;;;5059342;28;20377;-82
2023/10/20 09:32:34;;;;;;;1.80;1.70;;;;;;;;;;5059236;28;20413;-81
2023/10/20 09:35:00;;;;;;;2.17;2.08;;;;;;;;;;5059951;28;20774;-81
2023/10/20 09:37:30;;;;;;;2.13;1.95;;;;;;;;;;5058653;28;20393;-81
2023/10/20 09:40:00;;;;;;;2.33;1.90;;;;;;;;;;5055118;28;20409;-82
2023/10/20 09:42:27;;;;;;;2.90;2.60;;;;;;;;;;5058893;28;20444;-82
2023/10/20 09:45:06;;;;;;;2.70;2.50;;;;;;;;;;5058625;28;20388;-81
2023/10/20 09:47:35;;;;;;;4.15;2.70;;;;;;;;;;5058823;28;20386;-81
2023/10/20 09:50:01;;;;;;;2.22;2.10;;;;;;;;;;5058100;28;20381;-81
2023/10/20 09:52:29;;;;;;;2.40;2.20;;;;;;;;;;5058383;28;20893;-81
2023/10/20 09:54:56;;;;;;;2.30;2.10;;;;;;;;;;5057229;28;20396;-82
2023/10/20 09:57:22;;;;;;;2.58;2.38;;;;;;;;;;5057785;28;20862;-81
2023/10/20 09:59:54;;;;;;;2.50;2.30;;;;;;;;;;5057699;28;20445;-82
2023/10/20 10:02:27;;;;;;;2.10;1.90;;;;;;;;;;5057823;28;20396;-81
2023/10/20 10:04:54;;;;;;;2.38;2.20;;;;;;;;;;5057596;28;20835;-82
2023/10/20 10:07:30;;;;;;;2.90;2.60;;;;;;;;;;5057302;28;20447;-82
2023/10/20 10:09:57;;;;;;;2.78;2.35;;;;;;;;;;5044934;28;20448;-82
2023/10/20 10:12:24;;;;;;;2.15;1.98;;;;;;;;;;5054956;28;20392;-82
2023/10/20 10:15:05;;;;;;;2.30;2.17;;;;;;;;;;5045758;28;20414;-82
2023/10/20 10:17:33;;;;;;;1.95;1.85;;;;;;;;;;5058097;28;20381;-81
2023/10/20 10:19:59;;;;;;;2.07;1.90;;;;;;;;;;5057631;28;20417;-81
2023/10/20 10:22:29;;;;;;;2.42;2.20;;;;;;;;;;5058022;28;20392;-81
2023/10/20 10:24:56;;;;;;;2.40;2.20;;;;;;;;;;5059394;28;20701;-81
2023/10/20 10:27:26;;;;;;;2.63;2.42;;;;;;;;;;5062348;28;20439;-81
2023/10/20 10:30:05;;;;;;;2.20;2.00;;;;;;;;;;5059007;28;20941;-81
2023/10/20 10:32:31;;;;;;;2.20;2.00;;;;;;;;;;5058832;28;20396;-81
2023/10/20 10:34:58;;;;;;;2.03;1.93;;;;;;;;;;5057297;28;20785;-81
2023/10/20 10:37:31;;;;;;;1.90;1.80;;;;;;;;;;5046360;28;20377;-81
2023/10/20 10:40:10;;;;;;;2.80;2.55;;;;;;;;;;5057174;28;20449;-81
2023/10/20 10:43:02;;;;;;;2.58;2.28;;;;;;;;;;5054788;28;20373;-81
2023/10/20 10:45:35;;;;;;;2.58;2.03;;;;;;;;;;5052647;28;20473;-81
2023/10/20 10:48:08;;;;;;;2.60;1.90;;;;;;;;;;5057066;28;20385;-81
2023/10/20 10:50:36;;;;;;;1.90;1.80;;;;;;;;;;5056559;28;20388;-81
2023/10/20 10:53:02;;;;;;;2.08;1.88;;;;;;;;;;5056086;28;20416;-81
2023/10/20 10:55:29;;;;;;;2.83;1.83;;;;;;;;;;5055451;28;20381;-81
2023/10/20 10:57:56;;;;;;;3.00;2.05;;;;;;;;;;5056236;28;20386;-81
2023/10/20 11:00:22;;;;;;;2.22;2.00;;;;;;;;;;5056820;28;20394;-79
2023/10/20 11:02:49;;;;;;;2.00;1.80;;;;;;;;;;5056209;28;20878;-81
2023/10/20 11:05:16;;;;;;;1.92;1.83;;;;;;;;;;5056929;28;20384;-79
2023/10/20 11:07:55;;;;;;;1.88;1.77;;;;;;;;;;5055794;28;20739;-81
2023/10/20 11:10:21;;;;;;;2.20;2.00;;;;;;;;;;5056569;28;20416;-80
2023/10/20 11:12:50;;;;;;;2.00;1.50;;;;;;;;;;5056216;28;20450;-81
2023/10/20 11:15:16;;;;;;;1.88;1.67;;;;;;;;;;5056733;28;20396;-80
2023/10/20 11:17:43;;;;;;;3.03;1.30;;;;;;;;;;5055761;28;20453;-80
2023/10/20 11:20:09;;;;;;;1.40;1.27;;;;;;;;;;5056002;28;20505;-80
2023/10/20 11:22:39;;;;;;;1.60;1.35;;;;;;;;;;5056137;28;20377;-80
2023/10/20 11:25:05;;;;;;;1.77;1.10;;;;;;;;;;5055555;28;20847;-79
2023/10/20 11:27:41;;;;;;;0.90;0.90;;;;;;;;;;5058566;28;20386;-79
2023/10/20 11:30:07;;;;;;;1.50;1.17;;;;;;;;;;5055509;28;20381;-79
2023/10/20 11:32:34;;;;;;;1.30;0.87;;;;;;;;;;5056150;28;20393;-79
2023/10/20 11:35:00;;;;;;;1.27;0.80;;;;;;;;;;5055154;28;20381;-79
2023/10/20 11:37:26;;;;;;;0.80;0.80;;;;;;;;;;5055291;28;21075;-79
2023/10/20 11:39:52;;;;;;;0.90;0.90;;;;;;;;;;5055196;28;20419;-79
2023/10/20 11:42:18;;;;;;;0.82;0.82;;;;;;;;;;5055330;28;20386;-79
2023/10/20 11:44:45;;;;;;;1.45;1.35;;;;;;;;;;5055424;28;20378;-80
2023/10/20 11:47:11;;;;;;;1.43;1.30;;;;;;;;;;5049897;28;20392;-79
2023/10/20 11:49:37;;;;;;;1.20;1.10;;;;;;;;;;5056657;28;20456;-80
2023/10/20 11:52:07;;;;;;;1.35;1.00;;;;;;;;;;5055695;28;20863;-80
2023/10/20 11:54:33;;;;;;;1.80;1.10;;;;;;;;;;5054413;28;20395;-80
2023/10/20 11:56:59;;;;;;;1.97;1.10;;;;;;;;;;5056190;28;20389;-79
2023/10/20 11:59:25;;;;;;;2.50;1.10;;;;;;;;;;5056090;28;20472;-79
2023/10/20 12:01:51;;;;;;;2.03;0.93;;;;;;;;;;5055794;28;20385;-79
2023/10/20 12:04:17;;;;;;;2.93;0.87;;;;;;;;;;5056195;28;20411;-79
2023/10/20 12:06:44;;;;;;;0.90;0.63;;;;;;;;;;5055267;28;20373;-79
2023/10/20 12:09:10;;;;;;;1.23;0.70;;;;;;;;;;5055975;28;20382;-79
2023/10/20 12:11:37;;;;;;;2.50;1.00;;;;;;;;;;5056396;28;20407;-80
2023/10/20 12:14:06;;;;;;;0.93;0.60;;;;;;;;;;5055869;28;20377;-79
2023/10/20 12:16:32;;;;;;;1.37;0.60;;;;;;;;;;5055776;28;20417;-80
2023/10/20 12:19:01;;;;;;;2.97;0.63;;;;;;;;;;5053806;28;20417;-79
2023/10/20 12:21:30;;;;;;;0.57;0.50;;;;;;;;;;5037285;28;20389;-79
2023/10/20 12:23:57;;;;;;;1.05;0.70;;;;;;;;;;5055913;28;20735;-80
2023/10/20 12:26:23;;;;;;;0.77;0.40;;;;;;;;;;5057158;28;20385;-81
2023/10/20 12:28:50;;;;;;;1.17;0.60;;;;;;;;;;5056178;28;20385;-81
2023/10/20 12:31:16;;;;;;;3.35;0.60;;;;;;;;;;5055491;28;20906;-81
2023/10/20 12:33:44;;;;;;;1.80;0.47;;;;;;;;;;5040349;28;20427;-80
2023/10/20 12:36:13;;;;;;;0.45;0.40;;;;;;;;;;5037536;28;20884;-80
2023/10/20 12:38:39;;;;;;;0.68;0.60;;;;;;;;;;5041600;28;20417;-80
2023/10/20 12:41:05;;;;;;;0.63;0.60;;;;;;;;;;5054160;28;20382;-80
2023/10/20 12:43:31;;;;;;;0.50;0.50;;;;;;;;;;5050609;28;20916;-80
2023/10/20 12:45:57;;;;;;;1.50;0.63;;;;;;;;;;5035918;28;20389;-80
2023/10/20 12:48:23;;;;;;;0.77;0.60;;;;;;;;;;5055294;28;20386;-80
2023/10/20 12:50:49;;;;;;;0.55;0.50;;;;;;;;;;5048471;28;21214;-80
2023/10/20 12:53:15;;;;;;;0.43;0.40;;;;;;;;;;5049152;28;20522;-80
2023/10/20 12:55:41;;;;;;;0.75;0.52;;;;;;;;;;5052756;28;20395;-81
2023/10/20 12:58:08;;;;;;;0.52;0.50;;;;;;;;;;5055474;28;20378;-80
2023/10/20 13:00:34;;;;;;;0.47;0.35;;;;;;;;;;5033738;28;20737;-81
2023/10/20 13:03:00;;;;;;;1.00;0.50;;;;;;;;;;5037175;28;20390;-80
2023/10/20 13:05:26;;;;;;;0.80;0.40;;;;;;;;;;5053049;28;20386;-80
2023/10/20 13:07:53;;;;;;;0.68;0.40;;;;;;;;;;5054561;28;20736;-80
2023/10/20 13:10:20;;;;;;;0.52;0.40;;;;;;;;;;5054698;28;20401;-81
2023/10/20 13:12:46;;;;;;;0.40;0.30;;;;;;;;;;5055038;28;20715;-82
2023/10/20 13:15:13;;;;;;;0.60;0.37;;;;;;;;;;5054830;28;20703;-81
2023/10/20 13:17:39;;;;;;;0.40;0.40;;;;;;;;;;5055336;28;20779;-81
2023/10/20 13:20:08;;;;;;;0.60;0.50;;;;;;;;;;5055951;28;20421;-81
2023/10/20 13:22:34;;;;;;;0.90;0.52;;;;;;;;;;5055865;28;20464;-82
2023/10/20 13:25:02;;;;;;;1.70;1.10;;;;;;;;;;5055272;28;20381;-82
2023/10/20 13:27:28;;;;;;;0.93;0.68;;;;;;;;;;5051714;28;20401;-82
2023/10/20 13:29:54;;;;;;;0.50;0.30;;;;;;;;;;5045186;28;20384;-82
2023/10/20 13:32:20;;;;;;;0.70;0.52;;;;;;;;;;5062874;28;20410;-83
2023/10/20 13:34:46;;;;;;;0.98;0.63;;;;;;;;;;5059566;28;20381;-82
2023/10/20 13:37:12;;;;;;;1.55;1.05;;;;;;;;;;5059115;28;20837;-82
2023/10/20 13:39:38;;;;;;;1.03;0.60;;;;;;;;;;5059409;28;20417;-82
2023/10/20 13:42:04;;;;;;;0.90;0.57;;;;;;;;;;5063500;28;20378;-82
2023/10/20 13:44:30;;;;;;;1.10;0.40;;;;;;;;;;5071460;28;20400;-81
2023/10/20 13:46:56;;;;;;;0.50;0.40;;;;;;;;;;5066509;28;20385;-81
2023/10/20 13:49:22;;;;;;;2.20;0.60;;;;;;;;;;5059104;28;20446;-80
2023/10/20 13:51:48;;;;;;;0.75;0.55;;;;;;;;;;5056975;28;20858;-81
2023/10/20 13:54:15;;;;;;;1.75;1.00;;;;;;;;;;5047809;28;20430;-81
2023/10/20 13:56:41;;;;;;;1.65;0.90;;;;;;;;;;5057567;28;20389;-81
2023/10/20 13:59:07;;;;;;;2.63;1.20;;;;;;;;;;5055315;28;20505;-81
2023/10/20 14:01:33;;;;;;;2.20;0.90;;;;;;;;;;5056916;28;20393;-81
2023/10/20 14:03:59;;;;;;;1.80;0.77;;;;;;;;;;5057659;28;20449;-82
2023/10/20 14:06:25;;;;;;;7.05;2.13;;;;;;;;;;5057719;28;20389;-81
2023/10/20 14:08:51;;;;;;;3.38;1.70;;;;;;;;;;5057392;28;20409;-81
2023/10/20 14:11:18;;;;;;;3.80;1.00;;;;;;;;;;5057295;28;20389;-82
2023/10/20 14:13:45;;;;;;;1.55;0.80;;;;;;;;;;5057665;28;20473;-82
2023/10/20 14:16:11;;;;;;;0.60;0.50;;;;;;;;;;5057782;28;20396;-82
2023/10/20 14:18:37;;;;;;;1.10;0.50;;;;;;;;;;5059054;28;20416;-82
2023/10/20 14:21:03;;;;;;;1.75;1.10;;;;;;;;;;5058263;28;20478;-82
2023/10/20 14:23:31;;;;;;;3.08;0.60;;;;;;;;;;5059606;28;20385;-82
2023/10/20 14:25:58;;;;;;;2.30;0.60;;;;;;;;;;5058847;28;20386;-82
2023/10/20 14:28:31;;;;;;;0.70;0.50;;;;;;;;;;5058955;28;20397;-82
2023/10/20 14:30:57;;;;;;;1.10;0.52;;;;;;;;;;5058848;28;20891;-82
2023/10/20 14:33:23;;;;;;;3.25;0.60;;;;;;;;;;5059696;28;20831;-82
2023/10/20 14:35:49;;;;;;;1.33;0.80;;;;;;;;;;5058724;28;20381;-81
2023/10/20 14:38:15;;;;;;;1.30;0.50;;;;;;;;;;5034034;28;20400;-82
2023/10/20 14:40:41;;;;;;;0.85;0.40;;;;;;;;;;5053170;28;20404;-82
2023/10/20 14:43:07;;;;;;;1.55;0.55;;;;;;;;;;5058999;28;20381;-82
2023/10/20 14:45:33;;;;;;;0.95;0.40;;;;;;;;;;5058797;28;20389;-81
2023/10/20 14:47:59;;;;;;;1.13;0.32;;;;;;;;;;5041250;28;20441;-83
2023/10/20 14:50:26;;;;;;;1.20;0.40;;;;;;;;;;5060218;28;20488;-83
2023/10/20 14:52:52;;;;;;;1.02;0.60;;;;;;;;;;5059832;28;20396;-83
2023/10/20 14:55:18;;;;;;;1.40;0.50;;;;;;;;;;5049441;28;20381;-81
2023/10/20 14:57:45;;;;;;;2.25;1.20;;;;;;;;;;5058478;28;20392;-83
2023/10/20 15:00:11;;;;;;;3.28;1.70;;;;;;;;;;5058035;28;20413;-82
2023/10/20 15:02:40;;;;;;;2.85;2.17;;;;;;;;;;5058151;28;20377;-82
2023/10/20 15:05:07;;;;;;;2.30;1.90;;;;;;;;;;5057205;28;20432;-83
2023/10/20 15:07:36;;;;;;;2.63;1.67;;;;;;;;;;5056993;28;20385;-82
2023/10/20 15:10:02;;;;;;;1.40;1.20;;;;;;;;;;5057131;28;20847;-81
2023/10/20 15:12:29;;;;;;;1.17;1.00;;;;;;;;;;5057208;28;20471;-81
2023/10/20 15:14:55;;;;;;;1.13;0.90;;;;;;;;;;5057251;28;20385;-81
2023/10/20 15:17:21;;;;;;;1.00;0.60;;;;;;;;;;5057029;28;20381;-80